Time;durP1;ratioP1;P1;durP2;ratioP2;P2;SDS_P1;SDS_P2;PMS_P1;PMS_P2;Temp;Humidity;BMP_temperature;BMP_pressure;BME280_temperature;BME280_humidity;BME280_pressure;Samples;Min_cycle;Max_cycle;Signal;HPM_P1;HPM_P2
2023/06/22 00:00:54;;;;;;;0.10;0.10;;;24.40;99.90;;;;;;5039957;28;20201;-80
2023/06/22 00:03:22;;;;;;;0.10;0.10;;;24.20;99.90;;;;;;5041587;28;20190;-80
2023/06/22 00:05:48;;;;;;;0.10;0.10;;;24.00;99.90;;;;;;5042275;28;20208;-81
2023/06/22 00:08:18;;;;;;;0.10;0.10;;;23.90;99.90;;;;;;5041256;28;20202;-81
2023/06/22 00:10:44;;;;;;;0.10;0.10;;;24.00;99.90;;;;;;5044075;28;20201;-80
2023/06/22 00:13:10;;;;;;;0.10;0.10;;;24.10;99.90;;;;;;5041409;28;20190;-80
2023/06/22 00:15:38;;;;;;;0.10;0.10;;;24.30;99.90;;;;;;5041465;28;20186;-81
2023/06/22 00:18:05;;;;;;;0.10;0.10;;;24.40;99.90;;;;;;5042758;28;20182;-81
2023/06/22 00:20:30;;;;;;;0.10;0.10;;;24.40;99.90;;;;;;5041577;28;20720;-81
2023/06/22 00:22:58;;;;;;;0.10;0.10;;;24.40;99.90;;;;;;5039945;28;20181;-81
2023/06/22 00:25:24;;;;;;;0.10;0.10;;;24.50;99.90;;;;;;5042775;28;20465;-81
2023/06/22 00:27:50;;;;;;;0.10;0.10;;;24.50;99.90;;;;;;5042576;28;20182;-81
2023/06/22 00:30:17;;;;;;;0.10;0.10;;;24.50;99.90;;;;;;5045633;28;20270;-81
2023/06/22 00:32:43;;;;;;;0.10;0.10;;;24.50;99.90;;;;;;5042032;28;20178;-81
2023/06/22 00:35:09;;;;;;;0.10;0.10;;;24.50;99.90;;;;;;5042000;28;20174;-81
2023/06/22 00:37:35;;;;;;;0.10;0.10;;;24.60;99.90;;;;;;5042604;28;20196;-81
2023/06/22 00:40:01;;;;;;;0.10;0.10;;;24.60;99.90;;;;;;5042114;28;20983;-81
2023/06/22 00:42:27;;;;;;;0.10;0.10;;;24.70;99.90;;;;;;5042988;28;20208;-81
2023/06/22 00:44:53;;;;;;;0.10;0.10;;;24.70;99.90;;;;;;5043611;28;20269;-81
2023/06/22 00:47:19;;;;;;;0.10;0.10;;;24.70;99.90;;;;;;5050923;28;20235;-81
2023/06/22 00:49:46;;;;;;;0.10;0.10;;;24.70;99.90;;;;;;5042648;28;20288;-81
2023/06/22 00:52:13;;;;;;;0.10;0.10;;;24.70;99.90;;;;;;5041570;28;20178;-81
2023/06/22 00:54:45;;;;;;;0.10;0.10;;;24.60;99.90;;;;;;5044161;28;20801;-81
2023/06/22 00:57:15;;;;;;;0.10;0.10;;;24.40;99.90;;;;;;5043665;28;20200;-81
2023/06/22 00:59:43;;;;;;;0.10;0.10;;;24.40;99.90;;;;;;5044559;28;20185;-81
2023/06/22 01:02:09;;;;;;;0.10;0.10;;;24.30;99.90;;;;;;5043600;28;20201;-81
2023/06/22 01:04:36;;;;;;;0.10;0.10;;;24.20;99.90;;;;;;5041377;28;20312;-81
2023/06/22 01:07:20;;;;;;;0.10;0.10;;;24.00;99.90;;;;;;5042916;28;20216;-81
2023/06/22 01:09:57;;;;;;;0.10;0.10;;;24.10;99.90;;;;;;5042788;28;20232;-81
2023/06/22 01:12:24;;;;;;;0.10;0.10;;;24.00;99.90;;;;;;5044044;28;20504;-81
2023/06/22 01:14:57;;;;;;;0.10;0.10;;;23.40;99.90;;;;;;5041804;28;20183;-82
2023/06/22 01:17:24;;;;;;;0.10;0.10;;;22.60;99.90;;;;;;5042462;28;20238;-81
2023/06/22 01:19:55;;;;;;;0.10;0.10;;;22.30;99.90;;;;;;5040783;28;20859;-81
2023/06/22 01:22:23;;;;;;;0.10;0.10;;;21.90;99.90;;;;;;5041608;28;20223;-82
2023/06/22 01:24:57;;;;;;;0.10;0.10;;;21.70;99.90;;;;;;5041296;28;20239;-81
2023/06/22 01:27:41;;;;;;;0.10;0.10;;;21.80;99.90;;;;;;5040731;28;20269;-81
2023/06/22 01:30:10;;;;;;;0.10;0.10;;;22.10;99.90;;;;;;5041839;28;20202;-81
2023/06/22 01:32:37;;;;;;;0.10;0.10;;;22.30;99.90;;;;;;5042486;28;20248;-81
2023/06/22 01:35:06;;;;;;;0.10;0.10;;;22.20;99.90;;;;;;5045164;28;20182;-81
2023/06/22 01:37:33;;;;;;;0.10;0.10;;;21.90;99.90;;;;;;5045182;28;20562;-81
2023/06/22 01:39:59;;;;;;;0.10;0.10;;;22.10;99.90;;;;;;5044830;28;20549;-81
2023/06/22 01:42:25;;;;;;;0.10;0.10;;;22.30;99.90;;;;;;5044329;28;20189;-81
2023/06/22 01:44:52;;;;;;;0.10;0.10;;;22.50;99.90;;;;;;5043861;28;20739;-81
2023/06/22 01:47:18;;;;;;;0.10;0.10;;;22.50;99.90;;;;;;5045381;28;20182;-81
2023/06/22 01:49:45;;;;;;;0.10;0.10;;;22.50;99.90;;;;;;5044143;28;20204;-81
2023/06/22 01:52:11;;;;;;;0.10;0.10;;;22.00;99.90;;;;;;5046702;28;20502;-81
2023/06/22 01:54:38;;;;;;;0.10;0.10;;;21.50;99.90;;;;;;5046076;28;20180;-81
2023/06/22 01:57:04;;;;;;;0.10;0.10;;;21.20;99.90;;;;;;5045649;28;20182;-81
2023/06/22 01:59:37;;;;;;;0.10;0.10;;;21.00;99.90;;;;;;5045605;28;20223;-81
2023/06/22 02:02:08;;;;;;;0.10;0.10;;;21.10;99.90;;;;;;5046664;28;20209;-81
2023/06/22 02:04:47;;;;;;;0.10;0.10;;;21.20;99.90;;;;;;5044148;28;20181;-81
2023/06/22 02:07:16;;;;;;;0.10;0.10;;;21.20;99.90;;;;;;5045095;28;20601;-81
2023/06/22 02:09:44;;;;;;;0.10;0.10;;;21.20;99.90;;;;;;5045984;28;20236;-81
2023/06/22 02:12:12;;;;;;;0.10;0.10;;;21.10;99.90;;;;;;5045466;28;20186;-81
2023/06/22 02:14:38;;;;;;;0.10;0.10;;;21.20;99.90;;;;;;5044421;28;20182;-81
2023/06/22 02:17:07;;;;;;;0.10;0.10;;;21.30;99.90;;;;;;5045854;28;20190;-81
2023/06/22 02:19:35;;;;;;;0.10;0.10;;;21.50;99.90;;;;;;5043579;28;20213;-81
2023/06/22 02:22:01;;;;;;;0.10;0.10;;;21.50;99.90;;;;;;5042055;28;20761;-81
2023/06/22 02:24:27;;;;;;;0.10;0.10;;;21.50;99.90;;;;;;5045616;28;20268;-81
2023/06/22 02:26:52;;;;;;;0.10;0.10;;;21.50;99.90;;;;;;5044846;28;20190;-81
2023/06/22 02:29:18;;;;;;;0.10;0.10;;;21.80;99.90;;;;;;5044783;28;20210;-81
2023/06/22 02:31:43;;;;;;;0.10;0.10;;;21.90;99.90;;;;;;5044323;28;20233;-81
2023/06/22 02:34:09;;;;;;;0.10;0.10;;;22.10;99.90;;;;;;5044088;28;20281;-81
2023/06/22 02:36:34;;;;;;;0.10;0.10;;;22.30;99.90;;;;;;5043797;28;20192;-81
2023/06/22 02:39:01;;;;;;;0.10;0.10;;;22.30;99.90;;;;;;5043770;28;20201;-81
2023/06/22 02:41:27;;;;;;;0.10;0.10;;;22.10;99.90;;;;;;5045178;28;20255;-81
2023/06/22 02:43:52;;;;;;;0.10;0.10;;;21.80;99.90;;;;;;5044116;28;20189;-81
2023/06/22 02:46:18;;;;;;;0.10;0.10;;;21.80;99.90;;;;;;5044399;28;20708;-81
2023/06/22 02:48:44;;;;;;;0.10;0.10;;;21.70;99.90;;;;;;5045467;28;21040;-82
2023/06/22 02:51:09;;;;;;;0.10;0.10;;;21.60;99.90;;;;;;5044028;28;20198;-81
2023/06/22 02:53:35;;;;;;;0.10;0.10;;;21.60;99.90;;;;;;5045284;28;20182;-81
2023/06/22 02:56:05;;;;;;;0.10;0.10;;;21.70;99.90;;;;;;5044954;28;20197;-81
2023/06/22 02:58:38;;;;;;;0.10;0.10;;;21.80;99.90;;;;;;5043688;28;20196;-81
2023/06/22 03:01:05;;;;;;;0.10;0.10;;;22.00;99.90;;;;;;5043217;28;20201;-81
2023/06/22 03:03:30;;;;;;;0.10;0.10;;;22.10;99.90;;;;;;5043310;28;20283;-81
2023/06/22 03:05:56;;;;;;;0.10;0.10;;;22.30;99.90;;;;;;5046464;28;21111;-81
2023/06/22 03:08:21;;;;;;;0.10;0.10;;;22.40;99.90;;;;;;5045687;28;20197;-81
2023/06/22 03:10:47;;;;;;;0.10;0.10;;;22.00;99.90;;;;;;5044117;28;20530;-81
2023/06/22 03:13:12;;;;;;;0.10;0.10;;;21.80;99.90;;;;;;5044587;28;20643;-81
2023/06/22 03:15:38;;;;;;;0.10;0.10;;;21.70;99.90;;;;;;5042692;28;20193;-81
2023/06/22 03:18:04;;;;;;;0.10;0.10;;;21.70;99.90;;;;;;5044486;28;20201;-81
2023/06/22 03:20:33;;;;;;;0.10;0.10;;;21.70;99.90;;;;;;5043716;28;20220;-81
2023/06/22 03:22:59;;;;;;;0.10;0.10;;;21.80;99.90;;;;;;5044904;28;20182;-81
2023/06/22 03:25:24;;;;;;;0.10;0.10;;;21.80;99.90;;;;;;5042205;28;20189;-82
2023/06/22 03:27:50;;;;;;;0.10;0.10;;;21.70;99.90;;;;;;5043798;28;20280;-81
2023/06/22 03:30:18;;;;;;;0.10;0.10;;;21.60;99.90;;;;;;5043571;28;20205;-82
2023/06/22 03:32:43;;;;;;;0.10;0.10;;;21.50;99.90;;;;;;5042123;28;20189;-81
2023/06/22 03:35:12;;;;;;;0.10;0.10;;;21.40;99.90;;;;;;5041866;28;21180;-82
2023/06/22 03:37:38;;;;;;;0.10;0.10;;;21.40;99.90;;;;;;5042792;28;20287;-82
2023/06/22 03:40:07;;;;;;;0.10;0.10;;;21.30;99.90;;;;;;5044695;28;20209;-82
2023/06/22 03:42:35;;;;;;;0.10;0.10;;;21.40;99.90;;;;;;5045226;28;20277;-82
2023/06/22 03:45:01;;;;;;;0.10;0.10;;;21.40;99.90;;;;;;5046305;28;20284;-82
2023/06/22 03:47:27;;;;;;;0.10;0.10;;;21.50;99.90;;;;;;5045124;28;20280;-82
2023/06/22 03:49:55;;;;;;;0.10;0.10;;;21.50;99.90;;;;;;5045564;28;20194;-82
2023/06/22 03:52:22;;;;;;;0.10;0.10;;;21.40;99.90;;;;;;5045956;28;20697;-82
2023/06/22 03:54:48;;;;;;;0.10;0.10;;;21.50;99.90;;;;;;5045397;28;20205;-82
2023/06/22 03:57:13;;;;;;;0.10;0.10;;;21.50;99.90;;;;;;5044828;28;20236;-82
2023/06/22 03:59:39;;;;;;;0.10;0.10;;;21.60;99.90;;;;;;5044784;28;20221;-81
2023/06/22 04:02:04;;;;;;;0.10;0.10;;;21.70;99.90;;;;;;5043869;28;20209;-82
2023/06/22 04:04:30;;;;;;;0.10;0.10;;;22.00;99.90;;;;;;5044767;28;20190;-82
2023/06/22 04:06:55;;;;;;;0.10;0.10;;;22.10;99.90;;;;;;5045049;28;20190;-82
2023/06/22 04:09:21;;;;;;;0.10;0.10;;;22.10;99.90;;;;;;5043632;28;20197;-82
2023/06/22 04:11:47;;;;;;;0.10;0.10;;;22.20;99.90;;;;;;5044137;28;20201;-82
2023/06/22 04:14:12;;;;;;;0.10;0.10;;;22.20;99.90;;;;;;5043548;28;20185;-82
2023/06/22 04:16:38;;;;;;;0.10;0.10;;;22.10;99.90;;;;;;5044511;28;20280;-82
2023/06/22 04:19:04;;;;;;;0.10;0.10;;;22.10;99.90;;;;;;5042485;28;20213;-82
2023/06/22 04:21:29;;;;;;;0.10;0.10;;;22.20;99.90;;;;;;5043055;28;20220;-82
2023/06/22 04:23:55;;;;;;;0.10;0.10;;;22.40;99.90;;;;;;5045850;28;20225;-82
2023/06/22 04:26:20;;;;;;;0.10;0.10;;;22.50;99.90;;;;;;5042832;28;20194;-82
2023/06/22 04:28:51;;;;;;;0.10;0.10;;;22.50;99.90;;;;;;5044067;28;20198;-82
2023/06/22 04:31:19;;;;;;;0.10;0.10;;;22.70;99.90;;;;;;5039934;28;20217;-82
2023/06/22 04:33:44;;;;;;;0.10;0.10;;;22.80;99.90;;;;;;5037599;28;20236;-81
2023/06/22 04:36:13;;;;;;;0.10;0.10;;;23.00;99.90;;;;;;5038101;28;20193;-82
2023/06/22 04:38:39;;;;;;;0.10;0.10;;;23.10;99.90;;;;;;5043580;28;20186;-82
2023/06/22 04:41:04;;;;;;;0.10;0.10;;;23.20;99.90;;;;;;5038985;28;20225;-82
2023/06/22 04:43:30;;;;;;;0.10;0.10;;;23.10;99.90;;;;;;5039994;28;20232;-81
2023/06/22 04:46:03;;;;;;;0.10;0.10;;;23.00;99.90;;;;;;5048969;28;20200;-81
2023/06/22 04:48:32;;;;;;;0.10;0.10;;;23.00;99.90;;;;;;5056752;28;20209;-81
2023/06/22 04:51:02;;;;;;;0.10;0.10;;;23.00;99.90;;;;;;5045936;28;20218;-81
2023/06/22 04:53:29;;;;;;;0.10;0.10;;;22.80;99.90;;;;;;5046701;28;20182;-81
2023/06/22 04:55:55;;;;;;;0.10;0.10;;;22.70;99.90;;;;;;5044836;28;20239;-81
2023/06/22 04:58:21;;;;;;;0.10;0.10;;;22.80;99.90;;;;;;5041785;28;20276;-81
2023/06/22 05:00:47;;;;;;;0.10;0.10;;;23.00;99.90;;;;;;5044967;28;20617;-81
2023/06/22 05:03:12;;;;;;;0.10;0.10;;;23.20;99.90;;;;;;5062113;28;20336;-81
2023/06/22 05:05:38;;;;;;;0.10;0.10;;;23.40;99.90;;;;;;5044755;28;20212;-81
2023/06/22 05:08:06;;;;;;;0.10;0.10;;;23.60;99.90;;;;;;5039852;28;20695;-81
2023/06/22 05:10:32;;;;;;;0.10;0.10;;;23.70;99.90;;;;;;5044462;28;20289;-82
2023/06/22 05:12:58;;;;;;;0.10;0.10;;;23.80;99.90;;;;;;5042654;28;20561;-84
2023/06/22 05:15:27;;;;;;;0.10;0.10;;;23.90;99.90;;;;;;5044073;28;20185;-83
2023/06/22 05:17:53;;;;;;;0.10;0.10;;;24.20;99.90;;;;;;5041539;28;20202;-84
2023/06/22 05:20:19;;;;;;;0.10;0.10;;;24.30;99.90;;;;;;5045616;28;20209;-82
2023/06/22 05:22:45;;;;;;;0.10;0.10;;;24.30;99.90;;;;;;5040512;28;20186;-82
2023/06/22 05:25:11;;;;;;;0.10;0.10;;;24.30;99.90;;;;;;5043444;28;20204;-82
2023/06/22 05:27:41;;;;;;;0.10;0.10;;;24.40;99.90;;;;;;5040481;28;20196;-81
2023/06/22 05:30:07;;;;;;;0.10;0.10;;;24.40;99.90;;;;;;5042433;28;20270;-82
2023/06/22 05:32:33;;;;;;;0.10;0.10;;;24.50;99.90;;;;;;5042034;28;20199;-82
2023/06/22 05:34:59;;;;;;;0.10;0.10;;;24.30;99.90;;;;;;5043452;28;20547;-81
2023/06/22 05:37:24;;;;;;;0.10;0.10;;;23.80;99.90;;;;;;5043833;28;20280;-82
2023/06/22 05:39:50;;;;;;;0.10;0.10;;;23.60;99.90;;;;;;5042462;28;20190;-81
2023/06/22 05:42:16;;;;;;;0.10;0.10;;;23.60;99.90;;;;;;5039833;28;20232;-82
2023/06/22 05:44:41;;;;;;;0.10;0.10;;;23.80;99.90;;;;;;5043266;28;20191;-82
2023/06/22 05:47:07;;;;;;;0.10;0.10;;;23.90;99.90;;;;;;5043875;28;21152;-82
2023/06/22 05:49:33;;;;;;;0.10;0.10;;;23.80;99.90;;;;;;5037287;28;20311;-82
2023/06/22 05:51:59;;;;;;;0.10;0.10;;;24.00;99.90;;;;;;5044088;28;20197;-82
2023/06/22 05:54:25;;;;;;;0.10;0.10;;;24.00;99.90;;;;;;5039914;28;20335;-81
2023/06/22 05:56:51;;;;;;;0.10;0.10;;;23.90;99.90;;;;;;5044452;28;20609;-81
2023/06/22 05:59:17;;;;;;;0.10;0.10;;;23.90;99.90;;;;;;5043739;28;20189;-81
2023/06/22 06:01:42;;;;;;;0.10;0.10;;;24.00;99.90;;;;;;5048319;28;20232;-81
2023/06/22 06:04:08;;;;;;;0.10;0.10;;;23.70;99.90;;;;;;5048606;28;20190;-82
2023/06/22 06:06:34;;;;;;;0.10;0.10;;;23.90;99.90;;;;;;5045756;28;20194;-82
2023/06/22 06:09:00;;;;;;;0.10;0.10;;;23.70;99.90;;;;;;5048554;28;20194;-82
2023/06/22 06:11:26;;;;;;;0.10;0.10;;;23.60;99.90;;;;;;5044796;28;20206;-82
2023/06/22 06:13:51;;;;;;;0.10;0.10;;;24.00;99.90;;;;;;5044184;28;20182;-82
2023/06/22 06:16:17;;;;;;;0.10;0.10;;;24.30;99.90;;;;;;5045973;28;20182;-82
2023/06/22 06:18:42;;;;;;;0.10;0.10;;;24.50;99.90;;;;;;5043881;28;20177;-82
2023/06/22 06:21:08;;;;;;;0.20;0.20;;;24.60;99.90;;;;;;5038681;28;20198;-82
2023/06/22 06:23:33;;;;;;;1.17;1.17;;;24.40;99.90;;;;;;5043971;28;20182;-82
2023/06/22 06:26:01;;;;;;;0.10;0.10;;;24.30;99.90;;;;;;5038053;28;20437;-83
2023/06/22 06:28:27;;;;;;;0.10;0.10;;;24.50;99.90;;;;;;5045990;28;20259;-83
2023/06/22 06:30:53;;;;;;;0.10;0.10;;;24.60;99.90;;;;;;5039233;28;20209;-83
2023/06/22 06:33:20;;;;;;;0.10;0.10;;;24.50;99.90;;;;;;5039551;28;20233;-83
2023/06/22 06:35:46;;;;;;;0.10;0.10;;;24.80;99.90;;;;;;5038161;28;20178;-83
2023/06/22 06:38:11;;;;;;;0.10;0.10;;;24.90;99.90;;;;;;5043827;28;20193;-83
2023/06/22 06:40:37;;;;;;;0.10;0.10;;;25.10;99.90;;;;;;5035615;28;20301;-83
2023/06/22 06:43:02;;;;;;;0.10;0.10;;;24.90;99.90;;;;;;5040599;28;20262;-84
2023/06/22 06:45:29;;;;;;;0.10;0.10;;;25.00;99.90;;;;;;5047519;28;20228;-82
2023/06/22 06:47:54;;;;;;;0.10;0.10;;;24.90;99.90;;;;;;5040879;28;20300;-83
2023/06/22 06:50:20;;;;;;;0.10;0.10;;;25.40;99.90;;;;;;5043334;28;20609;-83
2023/06/22 06:52:46;;;;;;;0.10;0.10;;;25.50;99.90;;;;;;5037739;28;20208;-82
2023/06/22 06:55:12;;;;;;;0.10;0.10;;;25.60;99.90;;;;;;5041429;28;20268;-82
2023/06/22 06:57:41;;;;;;;0.10;0.10;;;25.80;99.90;;;;;;5040139;28;20273;-83
2023/06/22 07:00:11;;;;;;;0.10;0.10;;;25.30;99.90;;;;;;5040820;28;20205;-83
2023/06/22 07:02:38;;;;;;;0.10;0.10;;;25.50;99.90;;;;;;5035853;28;20225;-83
2023/06/22 07:05:05;;;;;;;0.10;0.10;;;25.30;99.90;;;;;;5038320;28;20310;-82
2023/06/22 07:07:31;;;;;;;0.10;0.10;;;25.50;99.90;;;;;;5042551;28;20202;-82
2023/06/22 07:09:57;;;;;;;0.10;0.10;;;25.20;99.90;;;;;;5041519;28;20221;-83
2023/06/22 07:12:22;;;;;;;0.10;0.10;;;25.40;99.90;;;;;;5039521;28;20200;-83
2023/06/22 07:14:48;;;;;;;0.10;0.10;;;25.50;99.90;;;;;;5040834;28;20277;-83
2023/06/22 07:17:14;;;;;;;0.10;0.10;;;25.70;99.90;;;;;;5040526;28;20197;-83
2023/06/22 07:19:40;;;;;;;0.10;0.10;;;25.80;99.90;;;;;;5041916;28;20273;-81
2023/06/22 07:22:06;;;;;;;0.10;0.10;;;25.90;99.90;;;;;;5039938;28;20188;-81
2023/06/22 07:24:32;;;;;;;0.10;0.10;;;26.20;99.90;;;;;;5034844;28;20181;-82
2023/06/22 07:26:58;;;;;;;0.10;0.10;;;26.30;99.90;;;;;;5039626;28;20220;-81
2023/06/22 07:29:24;;;;;;;0.10;0.10;;;26.20;99.90;;;;;;5035387;28;20265;-81
2023/06/22 07:31:51;;;;;;;0.10;0.10;;;25.90;99.90;;;;;;5037873;28;21034;-81
2023/06/22 07:34:17;;;;;;;0.10;0.10;;;25.90;99.90;;;;;;5040818;28;20670;-81
2023/06/22 07:36:43;;;;;;;0.10;0.10;;;26.10;99.90;;;;;;5039531;28;20220;-81
2023/06/22 07:39:09;;;;;;;0.10;0.10;;;26.30;99.90;;;;;;5037654;28;20175;-82
2023/06/22 07:41:34;;;;;;;0.10;0.10;;;26.20;99.90;;;;;;5037811;28;20206;-86
2023/06/22 07:44:00;;;;;;;0.10;0.10;;;26.20;99.90;;;;;;5037595;28;20239;-81
2023/06/22 07:46:26;;;;;;;0.10;0.10;;;26.30;99.90;;;;;;5037743;28;20330;-81
2023/06/22 07:48:51;;;;;;;0.10;0.10;;;26.30;99.90;;;;;;5035823;28;20201;-81
2023/06/22 07:51:17;;;;;;;0.10;0.10;;;26.40;99.90;;;;;;5037129;28;20733;-82
2023/06/22 07:53:43;;;;;;;0.10;0.10;;;26.80;99.90;;;;;;5041883;28;20185;-82
2023/06/22 07:56:13;;;;;;;0.20;0.20;;;26.60;99.90;;;;;;5021496;28;20591;-83
2023/06/22 07:58:39;;;;;;;1.23;1.23;;;26.70;99.90;;;;;;5021205;28;20190;-83
2023/06/22 08:01:05;;;;;;;0.10;0.10;;;26.70;99.90;;;;;;5015628;28;20213;-83
2023/06/22 08:03:31;;;;;;;0.10;0.10;;;26.70;99.90;;;;;;5039508;28;20236;-83
2023/06/22 08:05:57;;;;;;;0.35;0.35;;;26.90;99.90;;;;;;5041995;28;20229;-83
2023/06/22 08:08:24;;;;;;;0.10;0.10;;;26.60;99.90;;;;;;5048364;28;20749;-83
2023/06/22 08:10:50;;;;;;;0.10;0.10;;;27.00;99.90;;;;;;5040065;28;20206;-83
2023/06/22 08:13:15;;;;;;;0.10;0.10;;;27.10;99.90;;;;;;5034606;28;20182;-81
2023/06/22 08:15:41;;;;;;;0.10;0.10;;;27.40;99.90;;;;;;5037084;28;20189;-80
2023/06/22 08:18:06;;;;;;;0.10;0.10;;;27.60;99.90;;;;;;5040421;28;20178;-81
2023/06/22 08:20:32;;;;;;;0.10;0.10;;;27.90;99.90;;;;;;5040030;28;20201;-81
2023/06/22 08:23:00;;;;;;;0.10;0.10;;;28.20;99.90;;;;;;5038641;28;20199;-81
2023/06/22 08:25:26;;;;;;;0.10;0.10;;;27.80;99.90;;;;;;5035027;28;20268;-81
2023/06/22 08:27:51;;;;;;;0.10;0.10;;;28.20;99.90;;;;;;5034391;28;20182;-81
2023/06/22 08:30:18;;;;;;;0.10;0.10;;;27.40;99.90;;;;;;5035190;28;20205;-81
2023/06/22 08:32:44;;;;;;;0.10;0.10;;;26.90;99.90;;;;;;5032766;28;20259;-81
2023/06/22 08:35:10;;;;;;;0.10;0.10;;;27.60;99.90;;;;;;5039702;28;21874;-80
2023/06/22 08:37:36;;;;;;;0.10;0.10;;;27.90;99.90;;;;;;5037106;28;20222;-81
2023/06/22 08:40:05;;;;;;;0.10;0.10;;;27.60;99.90;;;;;;5038364;28;20201;-81
2023/06/22 08:42:31;;;;;;;0.10;0.10;;;27.40;99.90;;;;;;5043695;28;20189;-81
2023/06/22 08:44:56;;;;;;;0.10;0.10;;;27.30;99.90;;;;;;5042036;28;20247;-81
2023/06/22 08:47:22;;;;;;;0.10;0.10;;;27.80;99.90;;;;;;5043565;28;20190;-80
2023/06/22 08:49:49;;;;;;;0.10;0.10;;;28.50;99.90;;;;;;5042984;28;20323;-81
2023/06/22 08:52:14;;;;;;;0.10;0.10;;;28.90;99.90;;;;;;5041070;28;20608;-81
2023/06/22 08:54:40;;;;;;;0.10;0.10;;;29.00;99.90;;;;;;5042374;28;20215;-82
2023/06/22 08:57:06;;;;;;;0.20;0.20;;;28.10;99.90;;;;;;5042646;28;20189;-81
2023/06/22 08:59:32;;;;;;;0.10;0.10;;;28.00;99.90;;;;;;5041852;28;20668;-81
2023/06/22 09:01:57;;;;;;;0.10;0.10;;;28.40;99.90;;;;;;5042419;28;20829;-80
2023/06/22 09:04:24;;;;;;;0.10;0.10;;;28.70;99.90;;;;;;5042199;28;20683;-81
2023/06/22 09:06:50;;;;;;;0.10;0.10;;;29.00;99.90;;;;;;5045870;28;20189;-82
2023/06/22 09:09:17;;;;;;;0.10;0.10;;;28.30;99.90;;;;;;5044156;28;21022;-82
2023/06/22 09:11:43;;;;;;;0.10;0.10;;;27.70;99.90;;;;;;5041581;28;20705;-82
2023/06/22 09:14:09;;;;;;;0.10;0.10;;;28.40;99.90;;;;;;5039925;28;20174;-82
2023/06/22 09:16:35;;;;;;;0.10;0.10;;;28.90;99.90;;;;;;5040050;28;20170;-82
2023/06/22 09:19:00;;;;;;;0.10;0.10;;;29.10;99.90;;;;;;5042192;28;20204;-82
2023/06/22 09:21:26;;;;;;;0.50;0.50;;;28.90;99.90;;;;;;5043453;28;20217;-82
2023/06/22 09:23:51;;;;;;;0.30;0.30;;;29.60;99.90;;;;;;5042960;28;20201;-82
2023/06/22 09:26:22;;;;;;;0.10;0.10;;;29.60;99.90;;;;;;5046479;28;20189;-82
2023/06/22 09:28:48;;;;;;;0.10;0.10;;;29.90;99.90;;;;;;5045584;28;20686;-81
2023/06/22 09:31:13;;;;;;;0.10;0.10;;;30.00;99.90;;;;;;5042764;28;20205;-82
2023/06/22 09:33:40;;;;;;;0.10;0.10;;;29.60;99.90;;;;;;5041137;28;20236;-82
2023/06/22 09:36:07;;;;;;;0.10;0.10;;;29.30;99.90;;;;;;5043960;28;20177;-83
2023/06/22 09:38:36;;;;;;;0.10;0.10;;;29.60;99.90;;;;;;5036896;28;20201;-82
2023/06/22 09:41:02;;;;;;;0.10;0.10;;;29.80;99.90;;;;;;5038784;28;20221;-82
2023/06/22 09:43:27;;;;;;;0.10;0.10;;;30.10;99.90;;;;;;5041141;28;20215;-82
2023/06/22 09:45:53;;;;;;;0.10;0.10;;;29.90;99.90;;;;;;5043508;28;20182;-82
2023/06/22 09:48:19;;;;;;;0.10;0.10;;;29.00;99.90;;;;;;5041353;28;20230;-82
2023/06/22 09:50:44;;;;;;;0.10;0.10;;;28.30;99.90;;;;;;5043051;28;20259;-82
2023/06/22 09:53:10;;;;;;;0.10;0.10;;;28.40;99.90;;;;;;5040387;28;20185;-82
2023/06/22 09:55:35;;;;;;;0.10;0.10;;;28.70;99.90;;;;;;5042947;28;20197;-81
2023/06/22 09:58:01;;;;;;;0.30;0.30;;;29.30;99.90;;;;;;5040910;28;20181;-81
2023/06/22 10:00:26;;;;;;;0.10;0.10;;;29.50;99.90;;;;;;5041530;28;20271;-81
2023/06/22 10:02:52;;;;;;;0.10;0.10;;;29.60;99.90;;;;;;5042248;28;21218;-82
2023/06/22 10:05:18;;;;;;;0.10;0.10;;;29.30;99.90;;;;;;5040617;28;20581;-82
2023/06/22 10:07:44;;;;;;;0.10;0.10;;;29.80;99.90;;;;;;5041222;28;20777;-81
2023/06/22 10:10:11;;;;;;;0.10;0.10;;;30.00;99.90;;;;;;5041769;28;20717;-81
2023/06/22 10:12:37;;;;;;;0.10;0.10;;;30.00;99.90;;;;;;5034929;28;20178;-82
2023/06/22 10:15:03;;;;;;;0.10;0.10;;;29.70;99.90;;;;;;5043223;28;20741;-81
2023/06/22 10:17:29;;;;;;;0.10;0.10;;;29.60;99.90;;;;;;5038767;28;20181;-81
2023/06/22 10:19:54;;;;;;;0.10;0.10;;;29.30;99.90;;;;;;5041083;28;20659;-81
2023/06/22 10:22:20;;;;;;;0.10;0.10;;;29.30;99.90;;;;;;5040525;28;20187;-82
2023/06/22 10:24:45;;;;;;;0.10;0.10;;;29.40;99.90;;;;;;5043336;28;20185;-81
2023/06/22 10:27:11;;;;;;;0.10;0.10;;;29.60;99.90;;;;;;5041897;28;20174;-82
2023/06/22 10:29:37;;;;;;;0.10;0.10;;;30.00;99.90;;;;;;5042084;28;20217;-81
2023/06/22 10:32:03;;;;;;;0.10;0.10;;;29.80;99.90;;;;;;5044821;28;20771;-82
2023/06/22 10:34:29;;;;;;;0.10;0.10;;;30.30;99.90;;;;;;5043125;28;20185;-82
2023/06/22 10:36:54;;;;;;;0.10;0.10;;;30.70;99.90;;;;;;5033553;28;20187;-82
2023/06/22 10:39:20;;;;;;;0.10;0.10;;;31.20;99.90;;;;;;5040963;28;20197;-82
2023/06/22 10:41:45;;;;;;;0.10;0.10;;;30.80;99.90;;;;;;5043441;28;20663;-82
2023/06/22 10:44:12;;;;;;;0.10;0.10;;;31.10;99.90;;;;;;5044369;28;20212;-82
2023/06/22 10:46:37;;;;;;;0.10;0.10;;;30.30;99.90;;;;;;5039003;28;20181;-82
2023/06/22 10:49:03;;;;;;;0.93;0.93;;;30.40;99.90;;;;;;5040442;28;20210;-82
2023/06/22 10:51:28;;;;;;;0.10;0.10;;;30.30;99.90;;;;;;5042257;28;20713;-82
2023/06/22 10:53:54;;;;;;;0.10;0.10;;;30.10;99.90;;;;;;5039109;28;20185;-82
2023/06/22 10:56:19;;;;;;;0.10;0.10;;;29.80;99.90;;;;;;5042427;28;20190;-82
2023/06/22 10:58:45;;;;;;;0.20;0.20;;;30.10;99.90;;;;;;5045388;28;20714;-82
2023/06/22 11:01:11;;;;;;;0.10;0.10;;;30.10;99.90;;;;;;5044528;28;20587;-82
2023/06/22 11:03:37;;;;;;;0.10;0.10;;;31.00;99.90;;;;;;5038351;28;20186;-82
2023/06/22 11:06:02;;;;;;;0.10;0.10;;;31.60;99.90;;;;;;5039362;28;20198;-82
2023/06/22 11:08:28;;;;;;;0.10;0.10;;;31.40;99.90;;;;;;5044381;28;20213;-82
2023/06/22 11:10:54;;;;;;;0.10;0.10;;;31.40;99.90;;;;;;5035166;28;20270;-82
2023/06/22 11:13:19;;;;;;;0.10;0.10;;;31.90;99.90;;;;;;5042377;28;20182;-82
2023/06/22 11:15:45;;;;;;;0.10;0.10;;;32.30;99.90;;;;;;5041562;28;20188;-82
2023/06/22 11:18:10;;;;;;;0.10;0.10;;;32.00;99.90;;;;;;5042429;28;20212;-82
2023/06/22 11:20:38;;;;;;;0.10;0.10;;;32.40;99.90;;;;;;5045740;28;20244;-81
2023/06/22 11:23:07;;;;;;;0.10;0.10;;;32.70;99.90;;;;;;5041037;28;20192;-82
2023/06/22 11:25:34;;;;;;;0.10;0.10;;;32.00;99.90;;;;;;5028876;28;20177;-83
2023/06/22 11:28:02;;;;;;;0.10;0.10;;;32.20;99.90;;;;;;5042342;28;20174;-82
2023/06/22 11:30:28;;;;;;;7.57;6.82;;;31.70;99.90;;;;;;5040086;28;20206;-82
2023/06/22 11:32:53;;;;;;;0.10;0.10;;;31.70;99.90;;;;;;5042509;28;20188;-81
2023/06/22 11:35:19;;;;;;;0.10;0.10;;;31.90;99.90;;;;;;5042303;28;20193;-82
2023/06/22 11:37:44;;;;;;;0.10;0.10;;;32.30;99.90;;;;;;5044103;28;20185;-82
2023/06/22 11:40:10;;;;;;;0.10;0.10;;;32.50;99.90;;;;;;5042481;28;20206;-82
2023/06/22 11:42:36;;;;;;;0.10;0.10;;;32.30;99.90;;;;;;5033167;28;20236;-82
2023/06/22 11:45:04;;;;;;;0.10;0.10;;;32.40;99.90;;;;;;5037101;28;20185;-82
2023/06/22 11:47:30;;;;;;;0.10;0.10;;;32.70;99.90;;;;;;5039411;28;20253;-82
2023/06/22 11:49:55;;;;;;;0.10;0.10;;;32.80;99.90;;;;;;5037750;28;20296;-82
2023/06/22 11:52:21;;;;;;;0.10;0.10;;;32.30;99.90;;;;;;5038950;28;20189;-82
2023/06/22 11:54:47;;;;;;;0.10;0.10;;;32.40;99.90;;;;;;5042910;28;20553;-83
2023/06/22 11:57:12;;;;;;;0.17;0.17;;;33.00;99.90;;;;;;5048534;28;20232;-82
2023/06/22 11:59:38;;;;;;;0.10;0.10;;;32.90;99.90;;;;;;5041370;28;20607;-83
2023/06/22 12:02:05;;;;;;;0.10;0.10;;;33.20;99.90;;;;;;5041424;28;20235;-82
2023/06/22 12:04:30;;;;;;;0.10;0.10;;;33.00;99.90;;;;;;5037515;28;20248;-82
2023/06/22 12:06:56;;;;;;;1.42;1.42;;;31.70;99.90;;;;;;5037060;28;20189;-82
2023/06/22 12:09:22;;;;;;;0.10;0.10;;;32.40;99.90;;;;;;5039882;28;20194;-82
2023/06/22 12:11:47;;;;;;;0.10;0.10;;;33.10;99.90;;;;;;5041234;28;20210;-82
2023/06/22 12:14:13;;;;;;;0.10;0.10;;;33.00;99.90;;;;;;5040836;28;20200;-82
2023/06/22 12:16:38;;;;;;;0.10;0.10;;;32.70;99.90;;;;;;5040804;28;20178;-82
2023/06/22 12:19:04;;;;;;;0.10;0.10;;;33.30;99.90;;;;;;5040748;28;20204;-82
2023/06/22 12:21:29;;;;;;;0.10;0.10;;;33.20;99.90;;;;;;5034653;28;20717;-82
2023/06/22 12:23:55;;;;;;;0.10;0.10;;;33.80;99.90;;;;;;5040372;28;20177;-82
2023/06/22 12:26:21;;;;;;;0.10;0.10;;;34.10;99.90;;;;;;5039427;28;20193;-83
2023/06/22 12:28:47;;;;;;;0.10;0.10;;;34.10;99.90;;;;;;5040083;28;20205;-82
2023/06/22 12:31:14;;;;;;;0.10;0.10;;;34.50;99.90;;;;;;5036239;28;20237;-82
2023/06/22 12:33:39;;;;;;;0.10;0.10;;;34.60;99.90;;;;;;5038787;28;20178;-83
2023/06/22 12:36:05;;;;;;;0.10;0.10;;;34.50;99.90;;;;;;5035413;28;20628;-82
2023/06/22 12:38:30;;;;;;;0.20;0.20;;;34.20;99.90;;;;;;5036439;28;20268;-82
2023/06/22 12:40:56;;;;;;;0.10;0.10;;;33.80;99.90;;;;;;5033757;28;20216;-82
2023/06/22 12:43:21;;;;;;;0.10;0.10;;;33.20;99.90;;;;;;5038093;28;20308;-83